sensor_id;sensor_type;location;lat;lon;timestamp;pressure;altitude;pressure_sealevel;temperature;humidity
25664;BME280;13522;50.018;20.014;2022-12-29T00:02:52;98919.61;;;2.06;92.88
25664;BME280;13522;50.018;20.014;2022-12-29T00:06:33;98913.86;;;1.99;92.91
25664;BME280;13522;50.018;20.014;2022-12-29T00:10:13;98908.78;;;1.96;92.60
25664;BME280;13522;50.018;20.014;2022-12-29T00:13:54;98924.14;;;2.02;94.51
25664;BME280;13522;50.018;20.014;2022-12-29T00:17:23;98915.72;;;1.97;94.52
25664;BME280;13522;50.018;20.014;2022-12-29T00:20:36;98923.33;;;2.02;93.16
25664;BME280;13522;50.018;20.014;2022-12-29T00:24:03;98919.09;;;1.99;92.91
25664;BME280;13522;50.018;20.014;2022-12-29T00:27:34;98929.57;;;1.99;92.20
25664;BME280;13522;50.018;20.014;2022-12-29T00:31:08;98926.01;;;2.00;92.60
25664;BME280;13522;50.018;20.014;2022-12-29T00:37:59;98925.51;;;2.09;93.58
25664;BME280;13522;50.018;20.014;2022-12-29T00:41:30;98931.41;;;2.13;94.93
25664;BME280;13522;50.018;20.014;2022-12-29T00:44:56;98920.02;;;2.14;94.76
25664;BME280;13522;50.018;20.014;2022-12-29T00:48:37;98911.05;;;2.18;93.13
25664;BME280;13522;50.018;20.014;2022-12-29T00:52:07;98916.29;;;2.18;92.75
25664;BME280;13522;50.018;20.014;2022-12-29T00:55:39;98921.25;;;2.22;91.48
25664;BME280;13522;50.018;20.014;2022-12-29T00:59:05;98920.42;;;2.22;92.54
25664;BME280;13522;50.018;20.014;2022-12-29T01:02:47;98917.11;;;2.18;92.17
25664;BME280;13522;50.018;20.014;2022-12-29T01:06:28;98927.53;;;2.20;92.41
25664;BME280;13522;50.018;20.014;2022-12-29T01:09:42;98931.72;;;2.22;91.74
25664;BME280;13522;50.018;20.014;2022-12-29T01:13:27;98928.00;;;2.26;89.52
25664;BME280;13522;50.018;20.014;2022-12-29T01:16:39;98923.97;;;2.50;86.55
25664;BME280;13522;50.018;20.014;2022-12-29T01:20:20;98911.88;;;2.92;83.51
25664;BME280;13522;50.018;20.014;2022-12-29T01:23:41;98910.50;;;3.28;81.41
25664;BME280;13522;50.018;20.014;2022-12-29T01:27:22;98892.25;;;3.68;79.17
25664;BME280;13522;50.018;20.014;2022-12-29T01:30:34;98890.23;;;3.85;78.08
25664;BME280;13522;50.018;20.014;2022-12-29T01:33:46;98870.49;;;3.92;77.85
25664;BME280;13522;50.018;20.014;2022-12-29T01:36:59;98863.63;;;4.04;77.25
25664;BME280;13522;50.018;20.014;2022-12-29T01:40:13;98867.23;;;4.15;77.03
25664;BME280;13522;50.018;20.014;2022-12-29T01:43:43;98855.17;;;4.25;76.46
25664;BME280;13522;50.018;20.014;2022-12-29T01:46:58;98853.17;;;4.29;76.33
25664;BME280;13522;50.018;20.014;2022-12-29T01:50:11;98846.66;;;4.34;75.97
25664;BME280;13522;50.018;20.014;2022-12-29T01:53:31;98860.98;;;4.43;75.81
25664;BME280;13522;50.018;20.014;2022-12-29T01:56:46;98858.80;;;4.50;75.50
25664;BME280;13522;50.018;20.014;2022-12-29T02:00:02;98857.09;;;4.49;75.88
25664;BME280;13522;50.018;20.014;2022-12-29T02:03:43;98864.77;;;4.52;75.59
25664;BME280;13522;50.018;20.014;2022-12-29T02:06:58;98857.84;;;4.51;75.80
25664;BME280;13522;50.018;20.014;2022-12-29T02:10:16;98850.27;;;4.59;75.36
25664;BME280;13522;50.018;20.014;2022-12-29T02:13:30;98841.42;;;4.60;75.79
25664;BME280;13522;50.018;20.014;2022-12-29T02:21:17;98847.00;;;4.68;75.28
25664;BME280;13522;50.018;20.014;2022-12-29T02:29:26;98837.03;;;4.73;75.03
25664;BME280;13522;50.018;20.014;2022-12-29T02:32:56;98836.06;;;4.74;74.90
25664;BME280;13522;50.018;20.014;2022-12-29T02:37:02;98832.62;;;4.73;75.30
25664;BME280;13522;50.018;20.014;2022-12-29T02:40:25;98820.28;;;4.74;75.35
25664;BME280;13522;50.018;20.014;2022-12-29T02:43:45;98811.77;;;4.70;75.60
25664;BME280;13522;50.018;20.014;2022-12-29T02:47:08;98802.72;;;4.74;75.11
25664;BME280;13522;50.018;20.014;2022-12-29T02:50:40;98799.16;;;4.75;75.52
25664;BME280;13522;50.018;20.014;2022-12-29T02:53:56;98795.13;;;4.70;76.02
25664;BME280;13522;50.018;20.014;2022-12-29T02:57:33;98797.77;;;4.70;75.79
25664;BME280;13522;50.018;20.014;2022-12-29T03:00:51;98798.73;;;4.69;75.93
25664;BME280;13522;50.018;20.014;2022-12-29T03:04:19;98800.50;;;4.56;78.36
25664;BME280;13522;50.018;20.014;2022-12-29T03:07:39;98796.39;;;4.52;78.41
25664;BME280;13522;50.018;20.014;2022-12-29T03:11:01;98793.56;;;4.55;77.84
25664;BME280;13522;50.018;20.014;2022-12-29T03:14:21;98788.50;;;4.52;77.90
25664;BME280;13522;50.018;20.014;2022-12-29T03:17:54;98782.95;;;4.44;77.75
25664;BME280;13522;50.018;20.014;2022-12-29T03:21:43;98773.27;;;4.57;77.51
25664;BME280;13522;50.018;20.014;2022-12-29T03:25:51;98772.73;;;4.64;76.85
25664;BME280;13522;50.018;20.014;2022-12-29T03:29:34;98768.20;;;4.79;75.59
25664;BME280;13522;50.018;20.014;2022-12-29T03:32:51;98771.14;;;4.87;75.17
25664;BME280;13522;50.018;20.014;2022-12-29T03:36:16;98776.41;;;4.87;75.22
25664;BME280;13522;50.018;20.014;2022-12-29T03:39:25;98785.85;;;4.89;75.12
25664;BME280;13522;50.018;20.014;2022-12-29T03:42:40;98789.33;;;4.90;75.16
25664;BME280;13522;50.018;20.014;2022-12-29T03:45:53;98785.16;;;4.75;79.15
25664;BME280;13522;50.018;20.014;2022-12-29T03:49:05;98782.54;;;4.50;81.76
25664;BME280;13522;50.018;20.014;2022-12-29T03:52:18;98780.41;;;4.42;80.36
25664;BME280;13522;50.018;20.014;2022-12-29T03:55:30;98778.30;;;4.34;83.06
25664;BME280;13522;50.018;20.014;2022-12-29T03:58:42;98768.43;;;4.25;81.60
25664;BME280;13522;50.018;20.014;2022-12-29T04:01:56;98793.97;;;4.23;82.29
25664;BME280;13522;50.018;20.014;2022-12-29T04:05:09;98804.56;;;4.09;81.77
25664;BME280;13522;50.018;20.014;2022-12-29T04:08:22;98802.19;;;3.92;83.54
25664;BME280;13522;50.018;20.014;2022-12-29T04:11:34;98792.70;;;3.77;84.79
25664;BME280;13522;50.018;20.014;2022-12-29T04:14:46;98806.23;;;3.71;85.32
25664;BME280;13522;50.018;20.014;2022-12-29T04:17:58;98810.28;;;3.63;85.39
25664;BME280;13522;50.018;20.014;2022-12-29T04:21:11;98813.30;;;3.57;86.09
25664;BME280;13522;50.018;20.014;2022-12-29T04:24:23;98818.13;;;3.50;86.21
25664;BME280;13522;50.018;20.014;2022-12-29T04:27:36;98808.76;;;3.46;86.27
25664;BME280;13522;50.018;20.014;2022-12-29T04:31:06;98806.31;;;3.43;86.04
25664;BME280;13522;50.018;20.014;2022-12-29T04:34:20;98794.03;;;3.43;86.23
25664;BME280;13522;50.018;20.014;2022-12-29T04:37:32;98786.27;;;3.42;86.72
25664;BME280;13522;50.018;20.014;2022-12-29T04:40:45;98799.39;;;3.42;86.31
25664;BME280;13522;50.018;20.014;2022-12-29T04:44:00;98790.48;;;3.44;86.06
25664;BME280;13522;50.018;20.014;2022-12-29T04:51:39;98764.88;;;3.48;84.87
25664;BME280;13522;50.018;20.014;2022-12-29T04:55:44;98765.91;;;3.45;85.91
25664;BME280;13522;50.018;20.014;2022-12-29T05:00:11;98757.28;;;3.43;86.10
25664;BME280;13522;50.018;20.014;2022-12-29T05:11:00;98775.95;;;3.39;86.36
25664;BME280;13522;50.018;20.014;2022-12-29T05:18:21;98760.31;;;3.64;82.56
25664;BME280;13522;50.018;20.014;2022-12-29T05:21:33;98752.38;;;3.91;80.72
25664;BME280;13522;50.018;20.014;2022-12-29T05:24:46;98740.02;;;4.05;80.03
25664;BME280;13522;50.018;20.014;2022-12-29T05:27:58;98746.23;;;4.17;79.19
25664;BME280;13522;50.018;20.014;2022-12-29T05:31:25;98727.84;;;4.29;77.87
25664;BME280;13522;50.018;20.014;2022-12-29T05:34:37;98723.84;;;4.36;77.80
25664;BME280;13522;50.018;20.014;2022-12-29T05:37:49;98727.63;;;4.45;77.50
25664;BME280;13522;50.018;20.014;2022-12-29T05:41:01;98712.24;;;4.52;76.87
25664;BME280;13522;50.018;20.014;2022-12-29T05:44:32;98717.81;;;4.60;76.07
25664;BME280;13522;50.018;20.014;2022-12-29T05:47:50;98722.64;;;4.66;75.99
25664;BME280;13522;50.018;20.014;2022-12-29T05:51:06;98718.72;;;4.84;75.89
25664;BME280;13522;50.018;20.014;2022-12-29T05:54:21;98716.07;;;4.96;75.84
25664;BME280;13522;50.018;20.014;2022-12-29T05:57:34;98732.27;;;5.03;76.22
25664;BME280;13522;50.018;20.014;2022-12-29T06:01:51;98737.16;;;5.20;76.52
25664;BME280;13522;50.018;20.014;2022-12-29T06:05:04;98731.05;;;5.19;76.70
25664;BME280;13522;50.018;20.014;2022-12-29T06:08:18;98731.05;;;5.19;77.04
25664;BME280;13522;50.018;20.014;2022-12-29T06:22:09;98727.30;;;5.11;78.50
25664;BME280;13522;50.018;20.014;2022-12-29T06:25:22;98725.48;;;5.11;78.37
25664;BME280;13522;50.018;20.014;2022-12-29T06:28:37;98734.08;;;5.26;78.36
25664;BME280;13522;50.018;20.014;2022-12-29T06:31:50;98720.92;;;5.26;78.25
25664;BME280;13522;50.018;20.014;2022-12-29T06:35:06;98738.63;;;5.24;78.53
25664;BME280;13522;50.018;20.014;2022-12-29T06:38:27;98731.01;;;5.32;78.75
25664;BME280;13522;50.018;20.014;2022-12-29T06:41:41;98736.77;;;5.37;78.45
25664;BME280;13522;50.018;20.014;2022-12-29T06:45:01;98736.89;;;5.36;78.29
25664;BME280;13522;50.018;20.014;2022-12-29T06:48:15;98732.47;;;5.36;78.58
25664;BME280;13522;50.018;20.014;2022-12-29T06:51:26;98733.08;;;5.40;78.01
25664;BME280;13522;50.018;20.014;2022-12-29T06:54:41;98732.51;;;5.23;78.67
25664;BME280;13522;50.018;20.014;2022-12-29T06:57:55;98730.26;;;5.06;79.46
25664;BME280;13522;50.018;20.014;2022-12-29T07:01:08;98718.61;;;5.21;79.50
25664;BME280;13522;50.018;20.014;2022-12-29T07:04:21;98709.98;;;5.43;78.27
25664;BME280;13522;50.018;20.014;2022-12-29T07:07:33;98707.30;;;5.56;78.12
25664;BME280;13522;50.018;20.014;2022-12-29T07:10:45;98706.27;;;5.69;77.10
25664;BME280;13522;50.018;20.014;2022-12-29T07:13:57;98697.06;;;5.75;77.31
25664;BME280;13522;50.018;20.014;2022-12-29T07:17:09;98696.61;;;5.81;76.85
25664;BME280;13522;50.018;20.014;2022-12-29T07:20:21;98695.58;;;5.83;75.99
25664;BME280;13522;50.018;20.014;2022-12-29T07:23:34;98707.57;;;5.87;76.03
25664;BME280;13522;50.018;20.014;2022-12-29T07:26:46;98706.72;;;5.87;75.57
25664;BME280;13522;50.018;20.014;2022-12-29T07:29:57;98713.05;;;5.84;76.59
25664;BME280;13522;50.018;20.014;2022-12-29T07:33:09;98718.84;;;5.66;78.62
25664;BME280;13522;50.018;20.014;2022-12-29T07:36:22;98723.67;;;5.24;80.25
25664;BME280;13522;50.018;20.014;2022-12-29T07:39:36;98726.91;;;4.92;81.67
25664;BME280;13522;50.018;20.014;2022-12-29T07:42:48;98729.91;;;4.75;82.38
25664;BME280;13522;50.018;20.014;2022-12-29T07:46:02;98722.14;;;4.61;82.70
25664;BME280;13522;50.018;20.014;2022-12-29T07:49:16;98723.22;;;4.46;83.51
25664;BME280;13522;50.018;20.014;2022-12-29T07:52:28;98735.31;;;4.35;84.75
25664;BME280;13522;50.018;20.014;2022-12-29T07:55:41;98733.30;;;4.26;85.68
25664;BME280;13522;50.018;20.014;2022-12-29T07:58:53;98724.67;;;4.24;86.62
25664;BME280;13522;50.018;20.014;2022-12-29T08:02:05;98723.83;;;4.24;87.43
25664;BME280;13522;50.018;20.014;2022-12-29T08:05:19;98715.66;;;4.16;86.75
25664;BME280;13522;50.018;20.014;2022-12-29T08:08:32;98708.28;;;4.21;85.27
25664;BME280;13522;50.018;20.014;2022-12-29T08:11:44;98712.70;;;4.33;85.02
25664;BME280;13522;50.018;20.014;2022-12-29T08:14:56;98717.65;;;4.37;85.08
25664;BME280;13522;50.018;20.014;2022-12-29T08:18:08;98724.27;;;4.43;85.55
25664;BME280;13522;50.018;20.014;2022-12-29T08:21:20;98713.94;;;4.40;85.36
25664;BME280;13522;50.018;20.014;2022-12-29T08:24:32;98715.75;;;4.39;85.32
25664;BME280;13522;50.018;20.014;2022-12-29T08:27:44;98718.38;;;4.39;85.01
25664;BME280;13522;50.018;20.014;2022-12-29T08:30:58;98723.72;;;4.38;85.30
25664;BME280;13522;50.018;20.014;2022-12-29T08:34:11;98722.36;;;4.32;85.61
25664;BME280;13522;50.018;20.014;2022-12-29T08:37:23;98725.63;;;4.23;86.92
25664;BME280;13522;50.018;20.014;2022-12-29T08:40:36;98721.64;;;4.18;87.39
25664;BME280;13522;50.018;20.014;2022-12-29T08:43:49;98725.53;;;4.37;87.64
25664;BME280;13522;50.018;20.014;2022-12-29T08:47:01;98714.01;;;4.76;85.93
25664;BME280;13522;50.018;20.014;2022-12-29T08:50:13;98713.62;;;5.06;86.22
25664;BME280;13522;50.018;20.014;2022-12-29T08:53:26;98708.48;;;5.28;83.59
25664;BME280;13522;50.018;20.014;2022-12-29T08:56:38;98707.36;;;5.43;84.39
25664;BME280;13522;50.018;20.014;2022-12-29T08:59:52;98702.91;;;5.67;82.94
25664;BME280;13522;50.018;20.014;2022-12-29T09:03:04;98702.52;;;5.84;82.92
25664;BME280;13522;50.018;20.014;2022-12-29T09:06:18;98707.33;;;5.90;84.76
25664;BME280;13522;50.018;20.014;2022-12-29T09:09:30;98700.53;;;5.99;83.11
25664;BME280;13522;50.018;20.014;2022-12-29T09:12:42;98698.41;;;6.15;83.87
25664;BME280;13522;50.018;20.014;2022-12-29T09:16:01;98696.28;;;6.31;83.46
25664;BME280;13522;50.018;20.014;2022-12-29T09:19:13;98686.58;;;6.32;84.01
25664;BME280;13522;50.018;20.014;2022-12-29T09:22:25;98682.02;;;6.45;82.32
25664;BME280;13522;50.018;20.014;2022-12-29T09:25:37;98681.55;;;6.51;82.94
25664;BME280;13522;50.018;20.014;2022-12-29T09:28:50;98677.45;;;6.58;82.92
25664;BME280;13522;50.018;20.014;2022-12-29T09:32:03;98679.14;;;6.59;83.22
25664;BME280;13522;50.018;20.014;2022-12-29T09:35:18;98673.95;;;6.90;80.16
25664;BME280;13522;50.018;20.014;2022-12-29T09:38:30;98665.95;;;7.24;79.32
25664;BME280;13522;50.018;20.014;2022-12-29T09:41:46;98651.51;;;7.39;77.63
25664;BME280;13522;50.018;20.014;2022-12-29T09:45:00;98643.66;;;7.69;76.08
25664;BME280;13522;50.018;20.014;2022-12-29T09:48:16;98643.87;;;7.98;74.18
25664;BME280;13522;50.018;20.014;2022-12-29T09:51:30;98650.04;;;8.28;73.21
25664;BME280;13522;50.018;20.014;2022-12-29T09:54:48;98652.05;;;8.36;76.50
25664;BME280;13522;50.018;20.014;2022-12-29T09:58:09;98659.19;;;8.45;75.34
25664;BME280;13522;50.018;20.014;2022-12-29T10:01:29;98659.61;;;8.50;75.86
25664;BME280;13522;50.018;20.014;2022-12-29T10:04:44;98664.66;;;8.53;73.49
25664;BME280;13522;50.018;20.014;2022-12-29T10:08:03;98654.63;;;8.56;73.43
25664;BME280;13522;50.018;20.014;2022-12-29T10:11:33;98647.40;;;8.58;75.33
25664;BME280;13522;50.018;20.014;2022-12-29T10:14:56;98646.16;;;8.62;77.29
25664;BME280;13522;50.018;20.014;2022-12-29T10:22:12;98633.67;;;8.84;74.80
25664;BME280;13522;50.018;20.014;2022-12-29T10:25:31;98638.19;;;9.02;73.17
25664;BME280;13522;50.018;20.014;2022-12-29T10:28:47;98647.14;;;9.11;71.93
25664;BME280;13522;50.018;20.014;2022-12-29T10:32:00;98646.16;;;9.21;72.00
25664;BME280;13522;50.018;20.014;2022-12-29T10:35:18;98641.16;;;9.28;71.92
25664;BME280;13522;50.018;20.014;2022-12-29T10:38:35;98641.85;;;9.39;71.24
25664;BME280;13522;50.018;20.014;2022-12-29T10:41:53;98629.44;;;9.49;71.38
25664;BME280;13522;50.018;20.014;2022-12-29T10:45:13;98635.31;;;9.63;69.57
25664;BME280;13522;50.018;20.014;2022-12-29T10:48:30;98623.01;;;9.71;70.19
25664;BME280;13522;50.018;20.014;2022-12-29T10:51:46;98625.23;;;9.85;70.04
25664;BME280;13522;50.018;20.014;2022-12-29T10:55:02;98626.59;;;9.99;69.24
25664;BME280;13522;50.018;20.014;2022-12-29T10:58:18;98613.06;;;10.11;68.28
25664;BME280;13522;50.018;20.014;2022-12-29T11:01:37;98594.52;;;10.38;65.75
25664;BME280;13522;50.018;20.014;2022-12-29T11:04:57;98595.67;;;10.63;64.42
25664;BME280;13522;50.018;20.014;2022-12-29T11:08:16;98590.55;;;10.79;65.19
25664;BME280;13522;50.018;20.014;2022-12-29T11:11:34;98593.30;;;10.87;64.98
25664;BME280;13522;50.018;20.014;2022-12-29T11:14:48;98579.80;;;10.98;67.01
25664;BME280;13522;50.018;20.014;2022-12-29T11:18:33;98584.51;;;11.04;65.39
25664;BME280;13522;50.018;20.014;2022-12-29T11:21:49;98589.06;;;11.12;65.34
25664;BME280;13522;50.018;20.014;2022-12-29T11:25:10;98585.64;;;11.19;64.39
25664;BME280;13522;50.018;20.014;2022-12-29T11:28:22;98579.28;;;11.30;64.68
25664;BME280;13522;50.018;20.014;2022-12-29T11:31:41;98577.83;;;11.35;63.57
25664;BME280;13522;50.018;20.014;2022-12-29T11:34:54;98569.83;;;11.53;62.83
25664;BME280;13522;50.018;20.014;2022-12-29T11:38:16;98574.34;;;11.53;63.52
25664;BME280;13522;50.018;20.014;2022-12-29T11:41:32;98574.63;;;11.50;62.78
25664;BME280;13522;50.018;20.014;2022-12-29T11:44:46;98573.33;;;11.54;62.75
25664;BME280;13522;50.018;20.014;2022-12-29T11:48:01;98573.40;;;12.05;62.08
25664;BME280;13522;50.018;20.014;2022-12-29T11:51:26;98570.24;;;12.35;59.90
25664;BME280;13522;50.018;20.014;2022-12-29T11:54:40;98557.54;;;12.63;59.81
25664;BME280;13522;50.018;20.014;2022-12-29T11:57:53;98560.33;;;13.03;58.94
25664;BME280;13522;50.018;20.014;2022-12-29T12:01:11;98553.86;;;13.14;57.13
25664;BME280;13522;50.018;20.014;2022-12-29T12:04:28;98547.06;;;13.19;57.34
25664;BME280;13522;50.018;20.014;2022-12-29T12:07:44;98551.22;;;13.30;56.73
25664;BME280;13522;50.018;20.014;2022-12-29T12:11:02;98559.20;;;13.22;57.15
25664;BME280;13522;50.018;20.014;2022-12-29T12:14:19;98558.45;;;12.95;57.48
25664;BME280;13522;50.018;20.014;2022-12-29T12:17:49;98553.45;;;12.84;58.26
25664;BME280;13522;50.018;20.014;2022-12-29T12:21:10;98550.45;;;12.79;58.24
25664;BME280;13522;50.018;20.014;2022-12-29T12:24:39;98561.55;;;12.67;58.41
25664;BME280;13522;50.018;20.014;2022-12-29T12:27:57;98559.50;;;12.53;59.10
25664;BME280;13522;50.018;20.014;2022-12-29T12:31:18;98559.30;;;12.46;60.01
25664;BME280;13522;50.018;20.014;2022-12-29T12:34:38;98549.14;;;12.42;59.40
25664;BME280;13522;50.018;20.014;2022-12-29T12:38:01;98558.58;;;12.36;60.15
25664;BME280;13522;50.018;20.014;2022-12-29T12:41:21;98553.22;;;12.28;60.32
25664;BME280;13522;50.018;20.014;2022-12-29T12:44:44;98554.69;;;12.23;61.58
25664;BME280;13522;50.018;20.014;2022-12-29T12:48:05;98552.66;;;12.16;61.78
25664;BME280;13522;50.018;20.014;2022-12-29T12:51:26;98549.48;;;12.13;61.35
25664;BME280;13522;50.018;20.014;2022-12-29T12:54:49;98550.80;;;12.09;61.76
25664;BME280;13522;50.018;20.014;2022-12-29T12:58:19;98539.94;;;12.02;61.81
25664;BME280;13522;50.018;20.014;2022-12-29T13:01:42;98542.09;;;11.99;62.70
25664;BME280;13522;50.018;20.014;2022-12-29T13:05:13;98550.41;;;11.96;62.02
25664;BME280;13522;50.018;20.014;2022-12-29T13:08:48;98547.06;;;11.94;62.22
25664;BME280;13522;50.018;20.014;2022-12-29T13:12:19;98547.06;;;11.94;63.13
25664;BME280;13522;50.018;20.014;2022-12-29T13:15:42;98556.53;;;11.96;62.40
25664;BME280;13522;50.018;20.014;2022-12-29T13:19:00;98555.17;;;11.92;62.89
25664;BME280;13522;50.018;20.014;2022-12-29T13:22:19;98559.98;;;11.89;62.93
25664;BME280;13522;50.018;20.014;2022-12-29T13:25:39;98560.99;;;11.88;63.61
25664;BME280;13522;50.018;20.014;2022-12-29T13:28:55;98553.98;;;11.87;63.62
25664;BME280;13522;50.018;20.014;2022-12-29T13:32:20;98554.61;;;11.81;63.59
25664;BME280;13522;50.018;20.014;2022-12-29T13:35:49;98562.30;;;11.84;64.17
25664;BME280;13522;50.018;20.014;2022-12-29T13:39:09;98557.48;;;11.87;63.42
25664;BME280;13522;50.018;20.014;2022-12-29T13:42:26;98563.95;;;11.85;63.80
25664;BME280;13522;50.018;20.014;2022-12-29T13:45:38;98555.97;;;11.85;63.08
25664;BME280;13522;50.018;20.014;2022-12-29T13:48:55;98562.59;;;11.81;63.60
25664;BME280;13522;50.018;20.014;2022-12-29T13:52:11;98567.39;;;11.77;62.85
25664;BME280;13522;50.018;20.014;2022-12-29T13:55:29;98567.72;;;11.74;63.21
25664;BME280;13522;50.018;20.014;2022-12-29T13:58:48;98574.47;;;11.69;63.73
25664;BME280;13522;50.018;20.014;2022-12-29T14:02:08;98567.75;;;11.65;63.57
25664;BME280;13522;50.018;20.014;2022-12-29T14:05:31;98563.09;;;11.59;64.12
25664;BME280;13522;50.018;20.014;2022-12-29T14:08:45;98565.00;;;11.49;64.07
25664;BME280;13522;50.018;20.014;2022-12-29T14:11:57;98569.23;;;11.42;64.33
25664;BME280;13522;50.018;20.014;2022-12-29T14:15:23;98567.19;;;11.35;64.91
25664;BME280;13522;50.018;20.014;2022-12-29T14:18:43;98572.27;;;11.29;64.64
25664;BME280;13522;50.018;20.014;2022-12-29T14:21:57;98564.25;;;11.21;65.08
25664;BME280;13522;50.018;20.014;2022-12-29T14:33:11;98577.50;;;11.03;65.38
25664;BME280;13522;50.018;20.014;2022-12-29T14:36:27;98573.20;;;11.02;65.23
25664;BME280;13522;50.018;20.014;2022-12-29T14:39:45;98579.11;;;10.96;66.22
25664;BME280;13522;50.018;20.014;2022-12-29T14:42:58;98570.08;;;10.89;66.63
25664;BME280;13522;50.018;20.014;2022-12-29T14:46:11;98577.64;;;10.84;66.59
25664;BME280;13522;50.018;20.014;2022-12-29T14:49:24;98582.59;;;10.79;66.48
25664;BME280;13522;50.018;20.014;2022-12-29T14:52:44;98577.18;;;10.71;66.51
25664;BME280;13522;50.018;20.014;2022-12-29T14:56:00;98584.46;;;10.69;67.41
25664;BME280;13522;50.018;20.014;2022-12-29T14:59:13;98588.14;;;10.59;68.55
25664;BME280;13522;50.018;20.014;2022-12-29T15:02:34;98596.89;;;10.41;67.39
25664;BME280;13522;50.018;20.014;2022-12-29T15:05:47;98607.83;;;10.29;68.16
25664;BME280;13522;50.018;20.014;2022-12-29T15:09:06;98613.45;;;10.16;68.71
25664;BME280;13522;50.018;20.014;2022-12-29T15:12:29;98605.94;;;10.12;68.79
25664;BME280;13522;50.018;20.014;2022-12-29T15:15:43;98607.60;;;10.03;68.90
25664;BME280;13522;50.018;20.014;2022-12-29T15:18:55;98606.52;;;9.96;69.52
25664;BME280;13522;50.018;20.014;2022-12-29T15:22:08;98605.55;;;9.88;69.01
25664;BME280;13522;50.018;20.014;2022-12-29T15:25:21;98601.77;;;9.81;69.30
25664;BME280;13522;50.018;20.014;2022-12-29T15:28:41;98603.48;;;9.72;69.22
25664;BME280;13522;50.018;20.014;2022-12-29T15:31:54;98598.89;;;9.65;69.87
25664;BME280;13522;50.018;20.014;2022-12-29T15:35:21;98601.81;;;9.61;70.25
25664;BME280;13522;50.018;20.014;2022-12-29T15:38:35;98602.38;;;9.55;70.82
25664;BME280;13522;50.018;20.014;2022-12-29T15:41:50;98600.28;;;9.49;70.87
25664;BME280;13522;50.018;20.014;2022-12-29T15:45:12;98597.49;;;9.41;70.87
25664;BME280;13522;50.018;20.014;2022-12-29T15:48:26;98609.64;;;9.34;71.54
25664;BME280;13522;50.018;20.014;2022-12-29T15:52:10;98598.75;;;9.28;71.16
25664;BME280;13522;50.018;20.014;2022-12-29T15:55:27;98599.16;;;9.23;71.55
25664;BME280;13522;50.018;20.014;2022-12-29T15:58:44;98593.45;;;9.18;72.45
25664;BME280;13522;50.018;20.014;2022-12-29T16:01:58;98590.66;;;9.10;72.27
25664;BME280;13522;50.018;20.014;2022-12-29T16:05:16;98601.80;;;9.04;72.67
25664;BME280;13522;50.018;20.014;2022-12-29T16:09:04;98610.16;;;9.00;73.13
25664;BME280;13522;50.018;20.014;2022-12-29T16:12:20;98611.29;;;8.97;72.87
25664;BME280;13522;50.018;20.014;2022-12-29T16:15:33;98603.60;;;8.94;73.23
25664;BME280;13522;50.018;20.014;2022-12-29T16:18:46;98602.34;;;8.89;73.67
25664;BME280;13522;50.018;20.014;2022-12-29T16:22:02;98607.89;;;8.86;73.71
25664;BME280;13522;50.018;20.014;2022-12-29T16:25:19;98614.03;;;8.86;73.37
25664;BME280;13522;50.018;20.014;2022-12-29T16:28:38;98606.64;;;8.80;74.09
25664;BME280;13522;50.018;20.014;2022-12-29T16:31:54;98609.57;;;8.77;73.87
25664;BME280;13522;50.018;20.014;2022-12-29T16:35:16;98599.52;;;8.71;74.16
25664;BME280;13522;50.018;20.014;2022-12-29T16:38:34;98594.48;;;8.68;74.77
25664;BME280;13522;50.018;20.014;2022-12-29T16:41:48;98602.56;;;8.66;74.82
25664;BME280;13522;50.018;20.014;2022-12-29T16:45:09;98602.85;;;8.63;75.10
25664;BME280;13522;50.018;20.014;2022-12-29T16:48:36;98600.85;;;8.56;75.65
25664;BME280;13522;50.018;20.014;2022-12-29T16:51:51;98601.27;;;8.51;75.76
25664;BME280;13522;50.018;20.014;2022-12-29T16:55:05;98608.52;;;8.49;76.05
25664;BME280;13522;50.018;20.014;2022-12-29T16:58:27;98605.80;;;8.40;76.99
25664;BME280;13522;50.018;20.014;2022-12-29T17:01:41;98608.03;;;8.35;77.10
25664;BME280;13522;50.018;20.014;2022-12-29T17:04:54;98607.50;;;8.41;76.46
25664;BME280;13522;50.018;20.014;2022-12-29T17:08:18;98604.17;;;8.48;76.20
25664;BME280;13522;50.018;20.014;2022-12-29T17:11:34;98595.84;;;8.53;76.42
25664;BME280;13522;50.018;20.014;2022-12-29T17:15:10;98599.73;;;8.49;76.57
25664;BME280;13522;50.018;20.014;2022-12-29T17:18:22;98607.50;;;8.41;77.07
25664;BME280;13522;50.018;20.014;2022-12-29T17:21:34;98607.85;;;8.27;77.82
25664;BME280;13522;50.018;20.014;2022-12-29T17:24:48;98605.52;;;8.13;79.46
25664;BME280;13522;50.018;20.014;2022-12-29T17:28:02;98615.30;;;7.92;79.76
25664;BME280;13522;50.018;20.014;2022-12-29T17:31:16;98612.60;;;7.82;79.98
25664;BME280;13522;50.018;20.014;2022-12-29T17:34:28;98610.72;;;7.73;80.56
25664;BME280;13522;50.018;20.014;2022-12-29T17:38:17;98615.70;;;7.66;81.08
25664;BME280;13522;50.018;20.014;2022-12-29T17:41:30;98620.28;;;7.64;81.60
25664;BME280;13522;50.018;20.014;2022-12-29T17:44:43;98624.85;;;7.62;81.69
25664;BME280;13522;50.018;20.014;2022-12-29T17:48:25;98619.67;;;7.40;82.52
25664;BME280;13522;50.018;20.014;2022-12-29T17:51:37;98630.95;;;7.42;82.62
25664;BME280;13522;50.018;20.014;2022-12-29T17:54:51;98625.03;;;7.18;83.24
25664;BME280;13522;50.018;20.014;2022-12-29T17:58:18;98629.02;;;7.13;83.90
25664;BME280;13522;50.018;20.014;2022-12-29T18:01:32;98629.17;;;7.00;83.91
25664;BME280;13522;50.018;20.014;2022-12-29T18:04:46;98635.08;;;6.81;85.17
25664;BME280;13522;50.018;20.014;2022-12-29T18:07:59;98638.95;;;6.66;85.86
25664;BME280;13522;50.018;20.014;2022-12-29T18:11:21;98630.58;;;6.61;86.11
25664;BME280;13522;50.018;20.014;2022-12-29T18:14:33;98620.81;;;6.84;85.40
25664;BME280;13522;50.018;20.014;2022-12-29T18:17:46;98623.48;;;7.16;84.26
25664;BME280;13522;50.018;20.014;2022-12-29T18:21:00;98623.77;;;7.33;82.79
25664;BME280;13522;50.018;20.014;2022-12-29T18:24:14;98620.83;;;7.47;82.10